< < Back
Terminal Aerodrome Forecast


Current Version              Previous Versions:   1  2  3  4  5  6  7  8  9  

Terminal Aerodrome Forecast

438
FTUS44 KHUN 302323
TAFHSV
TAF
KHSV 302323Z 3100/3124 VRB04KT P6SM SCT250
     FM311500 VRB05KT P6SM BKN200=

Latest METAR

075
SAUS80 KWBC 310200 RRA
MTRHSV
METAR KHSV 310153Z 02004KT 10SM BKN250 23/16 A3006 RMK AO2 SLP173
T02330156


USA.gov is the U.S. government's official web portal to all federal, state and local government web resources and services.